Logo AVAMET
Benvolgut visitant, si us plau, ingressa Recuperar contrasenya

Torrevella Patricio Pérez

Dades diàries. Acumulats / Últims 30 dies disponibles

Data Temperatura (°C) Humitat rel. (%) Pressió rel. (hPa) Vent (km/h) Precipitació
Mínima Mitjana Màxima Amplitud
tèrmica
Mínima Mitjana Màxima Mínima Mitjana Màxima Predom. Mitjana Ràfega
màxima
Total
(mm)
Índex-n
Mínima Mitjana Màxima Mínima Mitjana Màxima n
0 a 1
P0 max
mm 5'
Dades mensuals acumulades fins l'últim dia disponible
11/2019 8,7 13,0 20,8 16,2 15,1 20,0 27,9 19,2 0 57 93 1.000 1.012 1.021   8,3 61,2 4,0
Dades anuals acumulades fins l'últim dia disponible
2019 4,6 16,8 26,6 19,7 12,3 23,0 35,7 31,1 0 72 99 995 1.016 1.034   6,8 75,6 445,0
Últims 30 dies disponibles
21-11-2019 10,7     13,6     18,3 7,6 59 77 89 1.008 1.009 1.011 OSO 2,6 14,5 0,4
20-11-2019 8,7     12,5     17,2 8,5 55 74 85 1.010 1.012 1.016 O 4,9 25,7 0,0
19-11-2019 9,2     12,3     16,3 7,1 41 61 79 1.015 1.016 1.018 O 6,3 33,8 0,0
18-11-2019 10,8     13,2     17,2 6,4 45 67 93 1.006 1.011 1.017 O 6,8 32,2 2,0 0,20
17-11-2019 8,7     13,2     17,3 8,6 35 52 76 1.010 1.014 1.017 OSO 5,6 24,1 0,8
16-11-2019 9,2     12,2     15,7 6,5 0 51 66 1.007 1.012 1.016 ONO 11,2 35,4 0,0
15-11-2019 10,2     12,3     15,1 4,9 40 57 69 1.003 1.005 1.007 ONO 8,8 40,2 0,0
14-11-2019 11,7     14,7     17,7 6,0 45 67 91 1.000 1.004 1.011 OSO 7,0 56,3 0,0
13-11-2019 13,3     20,0     22,9 9,6 43 61 87 1.007 1.010 1.012 SO 9,4 48,3 0,2
12-11-2019 10,8     15,2     20,1 9,3 31 48 63 1.010 1.012 1.013 ONO 9,7 35,4 0,0
11-11-2019 10,3     12,5     17,7 7,4 50 57 65 1.012 1.014 1.015 ONO 10,8 41,8 0,0
10-11-2019 12,7     15,1     17,3 4,6 35 52 75 1.012 1.013 1.015 ONO 13,9 61,2 0,0
09-11-2019 12,7     15,2     19,6 6,9 33 50 74 1.015 1.018 1.021 OSO 10,0 33,8 0,4
08-11-2019 12,4     15,0     17,9 5,5 36 48 65 1.010 1.014 1.019 O 10,4 43,5 0,0
07-11-2019 13,4     16,8     21,2 7,8 0 58 72 1.008 1.011 1.014 O 5,8 32,2 0,2
06-11-2019 14,0     17,1     21,2 7,2 36 52 68 1.013 1.014 1.015 O 9,3 41,8 0,0
05-11-2019 15,8     18,7     20,8 5,0 0 48 65 1.008 1.011 1.014 O 11,8 51,5 0,0
04-11-2019 17,9     21,5     24,7 6,8 0 58 74 1.007 1.010 1.013 SO 5,7 35,4 0,0
03-11-2019 20,0     22,7     26,3 6,3 40 51 62 1.004 1.006 1.012 OSO 12,6 57,9 0,0
02-11-2019 20,8     23,4     27,2 6,4 39 55 65 1.006 1.010 1.015 OSO 5,5 27,4 0,0
01-11-2019 20,2     23,8     27,9 7,7 49 62 74 1.015 1.018 1.020 O 5,3 25,7 0,0
31-10-2019 20,1     23,1     27,1 7,0 50 63 76 1.019 1.020 1.022 O 5,6 35,4 0,0
30-10-2019 18,1     20,8     24,7 6,6 0 75 86 1.018 1.020 1.021 OSO 4,3 17,7 0,0
29-10-2019 16,6     20,2     24,3 7,7 69 82 91 1.015 1.017 1.019 OSO 3,2 20,9 0,0
28-10-2019 15,3     18,5     22,2 6,9 69 86 94 1.016 1.018 1.020 OSO 4,6 24,1 0,0
27-10-2019 15,3     18,2     22,2 6,9 72 85 95 1.020 1.021 1.023 SO 4,3 16,1 0,0
26-10-2019 14,6     18,3     23,2 8,6 62 79 91 1.020 1.021 1.022 SO 3,6 16,1 0,0
25-10-2019 15,1     18,4     22,4 7,3 56 67 79 1.021 1.022 1.023 OSO 6,1 20,9 0,0
24-10-2019 13,3     17,1     21,1 7,8 48 62 76 1.012 1.017 1.022 O 7,0 38,6 0,0
23-10-2019 11,9     15,8     20,2 8,3 54 71 90 1.007 1.009 1.012 OSO 4,6 33,8 0,0
Últims 13 mesos disponibles
10/2019 11,9 17,9 23,3 20,9 16,7 24,6 30,5 18,6 52 73 91 1.009 1.016 1.022 OSO 5,2 41,8 42,6
09/2019 16,3 21,7 24,8 24,2 22,6 27,0 29,7 13,4 53 79 93 1.010 1.017 1.021 S 6,8 54,7 153,8
08/2019 21,6 24,1 26,6 26,5 27,7 29,2 35,4 13,8 66 79 87 1.010 1.015 1.019 S 6,2 43,5 26,0
07/2019 22,6 24,2 25,9 26,5 25,7 29,5 35,7 13,1 54 75 86 1.006 1.013 1.019 SSE 7,2 48,3 0,6
06/2019 16,3 20,0 24,2 22,7 21,6 25,6 32,9 16,6 55 73 86 1.008 1.014 1.022 SSE 7,5 49,9 0,0
05/2019 13,6 16,7 19,6 19,3 18,4 22,2 27,9 14,3 49 75 84 1.006 1.015 1.025 ESE 6,9 49,9 1,8
04/2019 10,5 13,3 15,8 16,0 15,6 19,4 25,7 15,2 49 73 94 1.000 1.013 1.025 SSO 8,0 75,6 186,2
03/2019 8,1 11,2 14,2 14,6 13,9 18,2 25,1 17,0 55 71 90 1.011 1.022 1.030 SSO 6,6 46,7 25,8
02/2019 5,9 9,6 12,4 13,8 13,8 17,2 22,3 16,4 35 64 82 997 1.024 1.032 SO 6,9 57,9 3,6
01/2019 4,6 8,7 13,3 12,8 12,3 16,5 21,2 16,6 42 63 84 1.003 1.020 1.031 O 6,2 51,5 0,6
12/2018 8,1 10,9 15,0 14,3 14,8 18,5 23,6 15,5 55 73 86 1.010 1.025 1.032 OSO 5,3 69,2 5,4
11/2018 9,4 12,8 16,7 15,6 15,7 19,1 21,0 11,6 55 73 91 1.000 1.015 1.022 OSO 7,0 53,0 133,0
10/2018 10,3 17,0 21,7 20,1 15,4 23,2 26,2 15,9 43 72 87 1.000 1.014 1.025 7,6 52,0 31,6
Tots els anys disponibles
2018 4,3 15,9 27,8 18,9 11,6 22,1 33,2 28,9 43 70 91 983 1.016 1.033 OSO 1,5 72,0 360,4
2017 1,1 16,2 27,6 19,3 7,1 22,3 33,6 32,5 37 71 89 1.000 1.018 1.036 SSO 0,1 71,0 219,0
2016 5,4 16,4 25,7 19,4 12,6 22,3 36,1 30,7 36 71 90 998 1.018 1.037 71,0 274,2
2015 4,2 16,3 23,6 19,4 22,4 22,4 36,6 32,4 59 70 77 1.014 1.019 1.030 82,0 219,0
2014 5,5 16,2 26,3 19,2 11,7 22,2 33,6 28,1 33 69 89 993 1.016 1.033 69,0 240,4
2013 5,0 16,1 19,9 19,0 19,9 22,1 32,8 27,8 57 68 76 993 1.014 1.025 71,0 268,6
Temperatura (°C)
Humitat relativa (%)
Velocitat del vent i ràfega màxima (km/h)
Direcció del vent (°)
Pressió (hPa)
Precipitació (mm)
Nota sobre les dades: s'avisa a l'usuari de la provisionalitat i no oficialitat d'aquestes dades
Logo AVAMET blanc
Web allotjada a Sollutia
Llicència de Creative CommonsLa web d'AVAMET i els seus continguts estan subjectes a una llicència de
Reconeixement - No Comercial - Compartir igual
Últimes estacions: Faura (Inforatge), Benifairó de les Valls (Inforatge), Xàbia - Les Valls (Soci), Xàbia - Alt de la Granadella (Soci), Villena - Sierra de Salinas (Soci), Sueca - Centre (Inforatge) - - -